createdAt,value
2019-05-17T00:00:07.424Z,102926.73
2019-05-17T00:03:17.081Z,102927.73
2019-05-17T00:06:23.287Z,102934.17
2019-05-17T00:09:29.711Z,102923.22
2019-05-17T00:12:36.889Z,102916.45
2019-05-17T00:15:43.369Z,102924.25
2019-05-17T00:18:49.904Z,102915.70
2019-05-17T00:21:56.774Z,102918.05
2019-05-17T00:25:03.348Z,102909.33
2019-05-17T00:28:10.314Z,102921.33
2019-05-17T00:31:18.052Z,102921.27
2019-05-17T00:34:24.394Z,102910.86
2019-05-17T00:37:30.775Z,102907.20
2019-05-17T00:40:37.149Z,102912.27
2019-05-17T00:43:43.706Z,102922.14
2019-05-17T00:46:50.103Z,102920.20
2019-05-17T00:49:56.997Z,102916.95
2019-05-17T00:53:03.593Z,102914.95
2019-05-17T00:56:10.120Z,102920.40
2019-05-17T00:59:17.033Z,102917.54
2019-05-17T01:02:23.854Z,102911.02
2019-05-17T01:05:30.191Z,102914.30
2019-05-17T01:08:37.341Z,102906.24
2019-05-17T01:11:43.944Z,102903.16
2019-05-17T01:14:50.313Z,102899.66
2019-05-17T01:17:56.581Z,102902.05
2019-05-17T01:21:03.070Z,102892.83
2019-05-17T01:24:09.489Z,102892.77
2019-05-17T01:27:17.199Z,102880.50
2019-05-17T01:30:26.496Z,102883.43
2019-05-17T01:33:32.924Z,102891.89
2019-05-17T01:36:39.390Z,102880.21
2019-05-17T01:39:46.824Z,102881.38
2019-05-17T01:42:53.342Z,102893.59
2019-05-17T01:45:59.843Z,102884.70
2019-05-17T01:49:06.870Z,102886.03
2019-05-17T01:52:13.593Z,102886.36
2019-05-17T01:55:19.959Z,102891.80
2019-05-17T01:58:26.988Z,102882.91
2019-05-17T02:01:33.574Z,102890.64
2019-05-17T02:04:40.011Z,102893.00
2019-05-17T02:07:46.774Z,102902.12
2019-05-17T02:10:53.358Z,102891.73
2019-05-17T02:13:59.734Z,102899.80
2019-05-17T02:17:06.874Z,102895.45
2019-05-17T02:20:16.850Z,102900.16
2019-05-17T02:23:22.902Z,102906.89
2019-05-17T02:26:29.227Z,102907.52
2019-05-17T02:29:35.630Z,102912.03
2019-05-17T02:32:43.433Z,102911.40
2019-05-17T02:35:53.374Z,102908.11
2019-05-17T02:38:58.119Z,102907.13
2019-05-17T02:42:04.502Z,102907.13
2019-05-17T02:45:13.334Z,102896.38
2019-05-17T02:48:22.943Z,102910.13
2019-05-17T02:51:27.312Z,102896.17
2019-05-17T02:54:33.910Z,102904.88
2019-05-17T02:57:43.223Z,102897.59
2019-05-17T03:00:48.327Z,102897.09
2019-05-17T03:03:54.688Z,102895.77
2019-05-17T03:07:03.831Z,102893.02
2019-05-17T03:10:18.370Z,102900.80
2019-05-17T03:13:18.191Z,102902.16
2019-05-17T03:16:24.628Z,102900.87
2019-05-17T03:19:32.723Z,102894.37
2019-05-17T03:22:38.960Z,102893.88
2019-05-17T03:25:45.392Z,102894.48
2019-05-17T03:28:53.773Z,102892.80
2019-05-17T03:32:07.444Z,102880.63
2019-05-17T03:35:15.567Z,102880.95
2019-05-17T03:38:17.200Z,102882.68
2019-05-17T03:41:28.673Z,102887.16
2019-05-17T03:44:33.297Z,102890.28
2019-05-17T03:47:39.811Z,102887.45
2019-05-17T03:50:46.676Z,102882.55
2019-05-17T03:53:53.298Z,102880.20
2019-05-17T03:57:02.672Z,102887.69
2019-05-17T04:00:08.003Z,102883.14
2019-05-17T04:03:14.788Z,102892.86
2019-05-17T04:06:23.872Z,102887.81
2019-05-17T04:09:29.237Z,102881.94
2019-05-17T04:12:35.639Z,102878.38
2019-05-17T04:15:43.285Z,102873.14
2019-05-17T04:18:49.923Z,102876.91
2019-05-17T04:21:56.422Z,102880.19
2019-05-17T04:25:03.313Z,102882.08
2019-05-17T04:28:13.391Z,102882.83
2019-05-17T04:31:18.024Z,102886.24
2019-05-17T04:34:24.466Z,102887.13
2019-05-17T04:37:33.937Z,102878.52
2019-05-17T04:40:42.897Z,102880.08
2019-05-17T04:43:47.651Z,102886.54
2019-05-17T04:46:54.121Z,102877.39
2019-05-17T04:50:03.599Z,102879.17
2019-05-17T04:53:08.777Z,102880.72
2019-05-17T04:56:15.216Z,102866.94
2019-05-17T04:59:24.263Z,102870.04
2019-05-17T05:02:32.784Z,102873.83
2019-05-17T05:05:38.192Z,102860.91
2019-05-17T05:08:44.546Z,102866.41
2019-05-17T05:12:00.378Z,102869.69
2019-05-17T05:14:59.299Z,102858.30
2019-05-17T05:18:05.997Z,102850.81
2019-05-17T05:21:12.419Z,102852.22
2019-05-17T05:24:18.864Z,102841.66
2019-05-17T05:27:25.325Z,102845.11
2019-05-17T05:30:32.115Z,102848.20
2019-05-17T05:33:38.366Z,102839.20
2019-05-17T05:36:44.940Z,102836.66
2019-05-17T05:39:54.113Z,102844.70
2019-05-17T05:43:02.130Z,102845.22
2019-05-17T05:46:07.917Z,102853.44
2019-05-17T05:49:14.343Z,102865.03
2019-05-17T05:52:21.912Z,102864.75
2019-05-17T05:55:29.156Z,102864.75
2019-05-17T05:58:35.517Z,102872.29
2019-05-17T06:01:42.302Z,102862.03
2019-05-17T06:04:48.768Z,102855.25
2019-05-17T06:07:55.361Z,102846.74
2019-05-17T06:11:02.410Z,102852.73
2019-05-17T06:14:08.932Z,102839.66
2019-05-17T06:17:16.878Z,102846.84
2019-05-17T06:20:23.588Z,102845.83
2019-05-17T06:23:31.545Z,102839.53
2019-05-17T06:26:38.362Z,102849.26
2019-05-17T06:29:44.861Z,102850.64
2019-05-17T06:32:51.848Z,102835.81
2019-05-17T06:35:58.210Z,102840.42
2019-05-17T06:39:06.789Z,102841.30
2019-05-17T06:42:14.033Z,102829.54
2019-05-17T06:45:22.095Z,102821.00
2019-05-17T06:48:28.856Z,102827.48
2019-05-17T06:51:35.542Z,102824.73
2019-05-17T06:54:41.990Z,102823.03
2019-05-17T06:57:48.564Z,102815.16
2019-05-17T07:00:54.935Z,102804.91
2019-05-17T07:04:01.355Z,102805.42
2019-05-17T07:07:25.817Z,102797.72
2019-05-17T07:10:32.469Z,102800.78
2019-05-17T07:13:39.640Z,102802.28
2019-05-17T07:16:47.239Z,102793.91
2019-05-17T07:19:53.791Z,102793.91
2019-05-17T07:23:00.627Z,102793.53
2019-05-17T07:26:09.214Z,102788.55
2019-05-17T07:29:15.561Z,102797.61
2019-05-17T07:32:21.969Z,102802.66
2019-05-17T07:35:30.007Z,102809.09
2019-05-17T07:38:36.605Z,102805.84
2019-05-17T07:41:43.135Z,102806.63
2019-05-17T07:44:49.875Z,102795.08
2019-05-17T07:48:00.018Z,102794.77
2019-05-17T07:51:05.712Z,102796.26
2019-05-17T07:54:12.262Z,102792.03
2019-05-17T07:57:20.727Z,102795.09
2019-05-17T08:00:27.180Z,102795.97
2019-05-17T08:03:33.528Z,102788.22
2019-05-17T08:06:40.488Z,102782.94
2019-05-17T08:09:47.368Z,102778.98
2019-05-17T08:12:54.513Z,102759.95
2019-05-17T08:16:01.840Z,102759.95
2019-05-17T08:19:09.708Z,102766.84
2019-05-17T08:22:16.347Z,102780.62
2019-05-17T08:25:23.012Z,102770.52
2019-05-17T08:28:31.340Z,102769.91
2019-05-17T08:31:40.470Z,102754.08
2019-05-17T08:34:49.507Z,102754.78
2019-05-17T08:37:55.309Z,102754.38
2019-05-17T08:41:02.791Z,102750.43
2019-05-17T08:44:10.034Z,102753.07
2019-05-17T08:47:20.705Z,102753.16
2019-05-17T08:50:26.093Z,102752.45
2019-05-17T08:53:32.549Z,102753.38
2019-05-17T08:56:40.174Z,102743.94
2019-05-17T08:59:49.782Z,102750.36
2019-05-17T09:02:56.697Z,102736.95
2019-05-17T09:06:03.234Z,102743.75
2019-05-17T09:09:10.133Z,102739.57
2019-05-17T09:12:16.654Z,102741.98
2019-05-17T09:15:23.201Z,102743.66
2019-05-17T09:18:30.198Z,102721.93
2019-05-17T09:21:36.710Z,102725.08
2019-05-17T09:24:43.071Z,102728.31
2019-05-17T09:27:50.161Z,102725.41
2019-05-17T09:30:56.830Z,102725.41
2019-05-17T09:34:03.321Z,102722.58
2019-05-17T09:37:10.513Z,102714.56
2019-05-17T09:40:19.849Z,102706.38
2019-05-17T09:43:25.796Z,102717.32
2019-05-17T09:46:33.135Z,102712.36
2019-05-17T09:49:39.926Z,102706.72
2019-05-17T09:52:49.253Z,102696.98
2019-05-17T09:55:55.044Z,102696.31
2019-05-17T09:59:01.593Z,102690.95
2019-05-17T10:02:09.491Z,102690.83
2019-05-17T10:05:16.381Z,102691.84
2019-05-17T10:08:22.941Z,102686.84
2019-05-17T10:11:30.730Z,102685.98
2019-05-17T10:14:38.915Z,102683.61
2019-05-17T10:17:45.872Z,102681.63
2019-05-17T10:20:52.556Z,102670.55
2019-05-17T10:24:00.188Z,102668.69
2019-05-17T10:27:06.723Z,102671.41
2019-05-17T10:30:13.378Z,102665.02
2019-05-17T10:33:20.157Z,102661.52
2019-05-17T10:36:29.275Z,102661.59
2019-05-17T10:39:35.300Z,102656.17
2019-05-17T10:42:42.033Z,102649.78
2019-05-17T10:45:48.481Z,102652.23
2019-05-17T10:48:55.205Z,102643.14
2019-05-17T10:52:01.845Z,102647.43
2019-05-17T10:55:10.462Z,102645.11
2019-05-17T10:58:21.025Z,102642.05
2019-05-17T11:01:26.733Z,102640.31
2019-05-17T11:04:34.478Z,102633.91
2019-05-17T11:07:42.109Z,102638.06
2019-05-17T11:10:50.121Z,102639.64
2019-05-17T11:13:57.591Z,102640.69
2019-05-17T11:17:04.102Z,102639.87
2019-05-17T11:20:11.467Z,102641.06
2019-05-17T11:23:18.915Z,102636.66
2019-05-17T11:26:25.515Z,102637.70
2019-05-17T11:29:32.012Z,102641.11
2019-05-17T11:32:38.707Z,102635.69
2019-05-17T11:35:45.120Z,102620.69
2019-05-17T11:38:51.616Z,102621.28
2019-05-17T11:41:58.076Z,102634.91
2019-05-17T11:45:05.000Z,102627.42
2019-05-17T11:48:11.570Z,102618.91
2019-05-17T11:51:18.069Z,102610.58
2019-05-17T11:54:24.808Z,102615.48
2019-05-17T11:57:31.542Z,102605.45
2019-05-17T12:00:38.049Z,102601.72
2019-05-17T12:03:44.479Z,102599.85
2019-05-17T12:06:50.921Z,102600.50
2019-05-17T12:09:57.568Z,102600.87
2019-05-17T12:13:04.034Z,102599.30
2019-05-17T12:16:10.603Z,102600.75
2019-05-17T12:19:17.079Z,102595.68
2019-05-17T12:22:23.541Z,102605.19
2019-05-17T12:25:30.021Z,102602.55
2019-05-17T12:28:36.685Z,102604.77
2019-05-17T12:31:43.147Z,102594.17
2019-05-17T12:34:49.765Z,102591.89
2019-05-17T12:37:56.265Z,102580.78
2019-05-17T12:41:02.805Z,102584.17
2019-05-17T12:44:09.344Z,102584.77
2019-05-17T12:47:16.159Z,102582.69
2019-05-17T12:50:22.726Z,102576.94
2019-05-17T12:53:29.171Z,102578.70
2019-05-17T12:56:35.733Z,102583.40
2019-05-17T12:59:42.598Z,102568.38
2019-05-17T13:02:48.998Z,102560.86
2019-05-17T13:05:55.516Z,102553.00
2019-05-17T13:09:03.087Z,102546.33
2019-05-17T13:12:10.784Z,102554.06
2019-05-17T13:15:17.746Z,102552.45
2019-05-17T13:18:24.232Z,102548.52
2019-05-17T13:21:30.770Z,102543.77
2019-05-17T13:24:39.442Z,102534.69
2019-05-17T13:27:46.348Z,102535.38
2019-05-17T13:30:53.949Z,102538.23
2019-05-17T13:34:00.418Z,102535.84
2019-05-17T13:37:07.054Z,102540.70
2019-05-17T13:40:13.830Z,102535.73
2019-05-17T13:43:20.926Z,102531.91
2019-05-17T13:46:33.025Z,102527.92
2019-05-17T13:49:36.749Z,102509.64
2019-05-17T13:52:44.247Z,102515.25
2019-05-17T13:55:51.686Z,102509.38
2019-05-17T13:58:58.623Z,102514.06
2019-05-17T14:02:05.269Z,102518.72
2019-05-17T14:05:11.771Z,102516.62
2019-05-17T14:08:18.228Z,102518.82
2019-05-17T14:11:24.669Z,102513.72
2019-05-17T14:14:31.341Z,102511.36
2019-05-17T14:17:37.882Z,102513.45
2019-05-17T14:20:44.502Z,102515.16
2019-05-17T14:23:52.024Z,102513.36
2019-05-17T14:26:58.473Z,102517.55
2019-05-17T14:30:05.445Z,102507.19
2019-05-17T14:33:12.057Z,102503.20
2019-05-17T14:36:18.473Z,102505.08
2019-05-17T14:39:25.034Z,102502.97
2019-05-17T14:42:31.456Z,102496.97
2019-05-17T14:45:38.011Z,102494.87
2019-05-17T14:48:44.488Z,102489.05
2019-05-17T14:51:51.061Z,102494.33
2019-05-17T14:54:57.528Z,102486.27
2019-05-17T14:58:04.052Z,102492.23
2019-05-17T15:01:10.888Z,102488.77
2019-05-17T15:04:17.628Z,102485.01
2019-05-17T15:07:24.087Z,102477.07
2019-05-17T15:10:30.606Z,102474.70
2019-05-17T15:13:37.031Z,102475.58
2019-05-17T15:16:43.584Z,102471.56
2019-05-17T15:19:51.426Z,102461.43
2019-05-17T15:22:58.233Z,102459.42
2019-05-17T15:26:05.163Z,102470.50
2019-05-17T15:29:11.752Z,102465.49
2019-05-17T15:32:18.185Z,102457.76
2019-05-17T15:35:24.673Z,102450.41
2019-05-17T15:38:31.147Z,102464.93
2019-05-17T15:41:37.747Z,102464.23
2019-05-17T15:44:44.289Z,102461.77
2019-05-17T15:47:51.648Z,102454.58
2019-05-17T15:50:58.111Z,102453.98
2019-05-17T15:54:05.963Z,102453.61
2019-05-17T15:57:12.609Z,102441.06
2019-05-17T16:00:19.938Z,102434.83
2019-05-17T16:03:26.806Z,102435.31
2019-05-17T16:06:33.618Z,102430.33
2019-05-17T16:09:40.178Z,102430.33
2019-05-17T16:13:00.846Z,102425.80
2019-05-17T16:15:54.948Z,102416.83
2019-05-17T16:19:01.477Z,102410.10
2019-05-17T16:22:08.679Z,102417.88
2019-05-17T16:25:17.579Z,102414.17
2019-05-17T16:28:23.989Z,102410.33
2019-05-17T16:31:30.777Z,102408.94
2019-05-17T16:34:39.648Z,102404.02
2019-05-17T16:37:46.606Z,102397.81
2019-05-17T16:40:53.122Z,102391.25
2019-05-17T16:44:00.580Z,102398.55
2019-05-17T16:47:07.097Z,102398.55
2019-05-17T16:50:13.638Z,102390.00
2019-05-17T16:53:20.422Z,102380.47
2019-05-17T16:56:27.408Z,102382.86
2019-05-17T16:59:34.369Z,102375.34
2019-05-17T17:02:41.493Z,102368.89
2019-05-17T17:05:48.403Z,102371.40
2019-05-17T17:08:55.531Z,102371.06
2019-05-17T17:12:03.499Z,102377.96
2019-05-17T17:15:10.738Z,102370.77
2019-05-17T17:18:17.601Z,102372.02
2019-05-17T17:21:24.677Z,102366.67
2019-05-17T17:24:32.012Z,102371.12
2019-05-17T17:27:41.303Z,102369.56
2019-05-17T17:30:48.218Z,102364.23
2019-05-17T17:33:54.905Z,102361.63
2019-05-17T17:37:01.378Z,102362.99
2019-05-17T17:40:08.670Z,102367.91
2019-05-17T17:43:16.114Z,102370.28
2019-05-17T17:46:22.837Z,102375.08
2019-05-17T17:49:29.315Z,102366.92
2019-05-17T17:52:35.770Z,102366.92
2019-05-17T17:55:42.216Z,102361.20
2019-05-17T17:58:48.824Z,102369.36
2019-05-17T18:01:55.240Z,102385.37
2019-05-17T18:05:04.624Z,102396.34
2019-05-17T18:08:20.977Z,102388.89
2019-05-17T18:11:29.438Z,102388.89
2019-05-17T18:14:40.205Z,102385.91
2019-05-17T18:17:46.766Z,102381.84
2019-05-17T18:20:56.590Z,102379.25
2019-05-17T18:24:11.918Z,102381.64
2019-05-17T18:27:18.705Z,102371.63
2019-05-17T18:30:29.028Z,102376.59
2019-05-17T18:33:41.260Z,102374.22
2019-05-17T18:36:48.900Z,102374.45
2019-05-17T18:39:59.869Z,102372.98
2019-05-17T18:43:07.935Z,102372.41
2019-05-17T18:46:14.884Z,102363.33
2019-05-17T18:49:23.670Z,102370.54
2019-05-17T18:52:30.124Z,102365.78
2019-05-17T18:55:42.313Z,102366.69
2019-05-17T18:58:48.727Z,102366.69
2019-05-17T19:01:56.820Z,102363.41
2019-05-17T19:05:08.582Z,102370.17
2019-05-17T19:08:16.202Z,102379.30
2019-05-17T19:11:23.981Z,102392.61
2019-05-17T19:15:00.691Z,102390.19
2019-05-17T19:18:10.511Z,102388.57
2019-05-17T19:21:20.213Z,102376.70
2019-05-17T19:24:26.660Z,102376.70
2019-05-17T19:27:33.214Z,102388.03
2019-05-17T19:30:39.923Z,102396.77
2019-05-17T19:33:49.384Z,102391.39
2019-05-17T19:36:56.882Z,102382.17
2019-05-17T19:40:05.826Z,102382.59
2019-05-17T19:43:12.161Z,102377.95
2019-05-17T19:46:18.669Z,102373.49
2019-05-17T19:49:24.953Z,102380.77
2019-05-17T19:52:31.493Z,102374.31
2019-05-17T19:55:38.150Z,102377.28
2019-05-17T19:58:46.429Z,102376.84
2019-05-17T20:01:53.036Z,102375.75
2019-05-17T20:05:05.462Z,102371.23
2019-05-17T20:08:11.854Z,102371.63
2019-05-17T20:11:33.400Z,102377.01
2019-05-17T20:14:26.867Z,102367.88
2019-05-17T20:17:33.486Z,102373.36
2019-05-17T20:20:40.088Z,102369.69
2019-05-17T20:23:49.244Z,102378.40
2019-05-17T20:26:55.548Z,102372.74
2019-05-17T20:30:02.709Z,102374.19
2019-05-17T20:33:10.593Z,102367.98
2019-05-17T20:36:18.863Z,102366.52
2019-05-17T20:39:26.402Z,102363.42
2019-05-17T20:42:33.345Z,102347.28
2019-05-17T20:45:42.927Z,102347.28
2019-05-17T20:48:49.406Z,102356.77
2019-05-17T20:52:05.615Z,102355.59
2019-05-17T20:55:11.786Z,102353.46
2019-05-17T20:58:19.904Z,102354.78
2019-05-17T21:01:28.897Z,102353.30
2019-05-17T21:04:34.399Z,102346.77
2019-05-17T21:07:42.728Z,102345.16
2019-05-17T21:10:49.083Z,102345.26
2019-05-17T21:13:55.638Z,102343.65
2019-05-17T21:17:02.058Z,102343.95
2019-05-17T21:20:09.476Z,102337.09
2019-05-17T21:23:16.164Z,102335.08
2019-05-17T21:26:22.808Z,102330.84
2019-05-17T21:29:29.341Z,102335.88
2019-05-17T21:32:37.486Z,102332.95
2019-05-17T21:35:44.513Z,102331.46
2019-05-17T21:38:51.033Z,102331.46
2019-05-17T21:41:57.503Z,102327.63
2019-05-17T21:45:04.050Z,102321.28
2019-05-17T21:48:10.430Z,102319.34
2019-05-17T21:51:16.885Z,102320.81
2019-05-17T21:54:23.293Z,102319.34
2019-05-17T21:57:29.999Z,102317.03
2019-05-17T22:01:20.699Z,102317.03
2019-05-17T22:04:27.367Z,102320.34
2019-05-17T22:07:34.244Z,102318.16
2019-05-17T22:10:41.871Z,102310.97
2019-05-17T22:13:48.592Z,102310.23
2019-05-17T22:16:55.583Z,102299.66
2019-05-17T22:20:02.329Z,102305.36
2019-05-17T22:23:15.340Z,102298.17
2019-05-17T22:26:33.702Z,102300.88
2019-05-17T22:29:41.420Z,102305.30
2019-05-17T22:32:48.040Z,102289.86
2019-05-17T22:36:01.253Z,102289.86
2019-05-17T22:39:14.500Z,102289.52
2019-05-17T22:42:29.176Z,102287.81
2019-05-17T22:45:35.741Z,102286.11
2019-05-17T22:48:42.649Z,102284.61
2019-05-17T22:51:49.103Z,102281.23
2019-05-17T22:54:55.752Z,102285.86
2019-05-17T22:58:02.076Z,102270.87
2019-05-17T23:01:08.968Z,102279.10
2019-05-17T23:04:15.357Z,102265.78
2019-05-17T23:07:21.866Z,102262.02
2019-05-17T23:10:28.754Z,102260.83
2019-05-17T23:13:35.426Z,102262.02
2019-05-17T23:16:50.897Z,102257.96
2019-05-17T23:19:50.408Z,102252.48
2019-05-17T23:22:56.894Z,102246.36
2019-05-17T23:26:03.514Z,102246.36
2019-05-17T23:29:10.081Z,102256.92
2019-05-17T23:32:16.509Z,102242.12
2019-05-17T23:35:23.093Z,102235.61
2019-05-17T23:38:30.014Z,102239.84
2019-05-17T23:41:38.806Z,102229.17
2019-05-17T23:44:45.327Z,102232.65
2019-05-17T23:47:51.877Z,102229.27
2019-05-17T23:50:58.367Z,102238.92
2019-05-17T23:54:05.882Z,102237.55
2019-05-17T23:57:12.393Z,102231.38
